Innsbruck, Austria

8:41 AM CEST on September 02, 2014 (GMT +0200)
ITIROLAM2 | Change Station
CLOSE
Current Station
Personal Weather Station
Location: Ampass, TIROL
Elevation: 2136 ft
Nearby Weather Stations

Elev 2136 ft 47.26 °N, 11.47 °E | Updated 41 minutes ago

Mostly Cloudy
Mostly Cloudy
53.8 °F
Feels Like 53.8 °F
N
0.0
Wind Variable Wind from WSW
Gusts 0.0 mph

Today
High -- | Low -- °F
--% Chance of Precip.
Yesterday
High -- | Low -- °F
Precip. -- in
6:34 AM 7:53 PM
Waxing Crescent, 48% visible
Pressure 30.15 in
Visibility 6.2 miles
Clouds Few 500 ft
Scattered Clouds 3000 ft
Mostly Cloudy 6500 ft
Dew Point 48 °F
Humidity 80%
Rainfall 0.00 in
Snow Depth Not available.
UV 0.0 out of 12
Pollen Not available.
Air Quality Not available.
Flu Activity Not available.
METAR LOWI 020620Z 27003KT 240V300 9999 FEW005 SCT030 BKN065 11/10 Q1021 NOSIG

More Conditions Fewer Conditions

Pressure 30.15 in
Visibility 6.2 miles
Clouds Few 500 ft
Scattered Clouds 3000 ft
Mostly Cloudy 6500 ft
Dew Point 48 °F
Humidity 80%
Rainfall 0.00 in
Snow Depth Not available.
UV 0.0 out of 12
Pollen Not available.
Air Quality Not available.
Flu Activity Not available.
METAR LOWI 020620Z 27003KT 240V300 9999 FEW005 SCT030 BKN065 11/10 Q1021 NOSIG

More Conditions Fewer Conditions

10-Day Weather Forecast

Almanac

Astronomy

Sep. 02, 2014 Rise Set
Actual Time 6:34 AM CEST 7:53 PM CEST
Civil Twilight 6:02 AM CEST 8:24 PM CEST
Nautical Twilight 5:24 AM CEST 9:02 PM CEST
Astronomical Twilight 4:43 AM CEST 9:43 PM CEST
Moon 2:31 PM CEST No Moon Set
Length of Visible Light 14h 21m
Length of Day
13h 18m
Tomorrow will be 3m 16s shorter.
Waxing Crescent, 48% of the Moon is Illuminated
Today
Waxing Crescent
Sep 2
First Quarter
Sep 8
Full
Sep 15
Last Quarter
Sep 24
New

Yesterday's Extremes

Country Highs Country Lows

Community

WunderPhotos

Upload Photos

1,749,589 photos uploaded!

WunderBlogs® & News

Nearby

Snow Depth

Not available.

Earthquake Activity

City Distance Mag. Time & Date
No recent earthquake activity has been reported nearby.
Minimum magnitude displayed is 2.5.

Coastal Water Temperatures

Place Temperature
No Stations Reporting

Nearby Weather Stations